Clipper 3 — ZMT3984 — position and weather

sailwx.info

Track history (hours):
 
Tides and Currents Weather Stations Pressure Air Temp Water Temp Dewpoint Dewpoint Depression Visibility Wind Speed Wind Dir Waves Ship Positions

Clipper 3

Last reported at 2014-Sep-18 19:31 UTC. Time now 2014-Sep-20 18:02 UTC.
Position S 36°51' E 174°46'.

Length 14 m; draft 1 m.

Type: High speed craft. MMSI: 512000741.

Date/timePositionNaut miles runAvg speedWind from/ knotsBaromVisibWave heightAir tempDewpointWater temp
2014-Sep-18 19:31S 36°51' E 174°46'1 0.0
2014-Sep-18 02:05S 36°50' E 174°47'3 0.5
2014-Sep-17 20:32S 36°50' E 174°50'3 2.8
2014-Sep-17 19:20S 36°50' E 174°46'7 0.2
2014-Sep-16 02:17S 36°51' E 174°55'0 0.3
2014-Sep-16 01:33S 36°51' E 174°55'5 4.2
2014-Sep-16 00:29S 36°53' E 174°59'5 5.2
2014-Sep-15 23:34S 36°51' E 174°54'5 2.4
2014-Sep-15 21:33S 36°53' E 174°59'9 8.7
2014-Sep-15 20:33S 36°50' E 174°49'2 1.8
2014-Sep-15 19:33S 36°50' E 174°47'10 3.1
2014-Sep-15 16:13S 36°53' E 174°59'0 0.0
2014-Sep-15 14:25S 36°53' E 174°59'0 0.0
2014-Sep-15 13:29S 36°53' E 174°59'0 0.0
2014-Sep-15 12:32S 36°53' E 174°59'0 0.0
2014-Sep-15 11:33S 36°53' E 174°59'0 0.0
2014-Sep-15 07:24S 36°53' E 174°59'5 4.5
2014-Sep-15 06:15S 36°51' E 174°54'0 0.0
2014-Sep-15 04:16S 36°51' E 174°54'1 0.1
2014-Sep-14 21:04S 36°51' E 174°53'3 5.6
2014-Sep-14 20:33S 36°50' E 174°49'3 2.3
2014-Sep-14 19:20S 36°51' E 174°46'  
2014-Sep-10 06:03S 36°50' E 174°46'0 0.0
2014-Sep-09 04:31S 36°51' E 174°46'  
Track history (hours):
 
Tides and Currents Weather Stations Pressure Air Temp Water Temp Dewpoint Dewpoint Depression Visibility Wind Speed Wind Dir Waves Ship Positions

Clipper 3

Last reported at 2014-Sep-18 19:31 UTC. Time now 2014-Sep-20 18:02 UTC.
Position S 36°51' E 174°46'.

Length 14 m; draft 1 m.

Type: High speed craft. MMSI: 512000741.

Date/timePositionNaut miles runAvg speedWind from/ knotsBaromVisibWave heightAir tempDewpointWater temp
2014-Sep-18 19:31S 36°51' E 174°46'1 0.0
2014-Sep-18 02:05S 36°50' E 174°47'3 0.5
2014-Sep-17 20:32S 36°50' E 174°50'3 2.8
2014-Sep-17 19:20S 36°50' E 174°46'7 0.2
2014-Sep-16 02:17S 36°51' E 174°55'0 0.3
2014-Sep-16 01:33S 36°51' E 174°55'5 4.2
2014-Sep-16 00:29S 36°53' E 174°59'5 5.2
2014-Sep-15 23:34S 36°51' E 174°54'5 2.4
2014-Sep-15 21:33S 36°53' E 174°59'9 8.7
2014-Sep-15 20:33S 36°50' E 174°49'2 1.8
2014-Sep-15 19:33S 36°50' E 174°47'10 3.1
2014-Sep-15 16:13S 36°53' E 174°59'0 0.0
2014-Sep-15 14:25S 36°53' E 174°59'0 0.0
2014-Sep-15 13:29S 36°53' E 174°59'0 0.0
2014-Sep-15 12:32S 36°53' E 174°59'0 0.0
2014-Sep-15 11:33S 36°53' E 174°59'0 0.0
2014-Sep-15 07:24S 36°53' E 174°59'5 4.5
2014-Sep-15 06:15S 36°51' E 174°54'0 0.0
2014-Sep-15 04:16S 36°51' E 174°54'1 0.1
2014-Sep-14 21:04S 36°51' E 174°53'3 5.6
2014-Sep-14 20:33S 36°50' E 174°49'3 2.3
2014-Sep-14 19:20S 36°51' E 174°46'  
2014-Sep-10 06:03S 36°50' E 174°46'0 0.0
2014-Sep-09 04:31S 36°51' E 174°46'  

Dump ship's entire track history